sensor_id;sensor_type;location;lat;lon;timestamp;pressure;altitude;pressure_sealevel;temperature;humidity
18527;BME280;9393;42.158;24.748;2022-08-11T00:00:34;99481.28;;;26.35;52.96
18527;BME280;9393;42.158;24.748;2022-08-11T00:03:43;99481.19;;;25.96;54.29
18527;BME280;9393;42.158;24.748;2022-08-11T00:06:49;99479.97;;;25.87;54.50
18527;BME280;9393;42.158;24.748;2022-08-11T00:09:54;99475.28;;;25.78;54.80
18527;BME280;9393;42.158;24.748;2022-08-11T00:13:00;99471.50;;;25.62;55.09
18527;BME280;9393;42.158;24.748;2022-08-11T00:16:12;99465.41;;;25.50;55.74
18527;BME280;9393;42.158;24.748;2022-08-11T00:19:20;99475.66;;;25.70;55.42
18527;BME280;9393;42.158;24.748;2022-08-11T00:22:46;99468.25;;;25.88;54.76
18527;BME280;9393;42.158;24.748;2022-08-11T00:25:51;99476.09;;;25.78;54.89
18527;BME280;9393;42.158;24.748;2022-08-11T00:28:55;99475.72;;;24.90;57.70
18527;BME280;9393;42.158;24.748;2022-08-11T00:32:02;99480.06;;;25.47;56.06
18527;BME280;9393;42.158;24.748;2022-08-11T00:35:08;99476.31;;;25.48;56.20
18527;BME280;9393;42.158;24.748;2022-08-11T00:38:36;99474.28;;;25.50;56.72
18527;BME280;9393;42.158;24.748;2022-08-11T00:41:46;99477.75;;;25.39;57.27
18527;BME280;9393;42.158;24.748;2022-08-11T00:45:03;99485.88;;;25.44;57.29
18527;BME280;9393;42.158;24.748;2022-08-11T00:48:23;99488.03;;;25.59;57.21
18527;BME280;9393;42.158;24.748;2022-08-11T00:51:42;99486.28;;;25.25;58.53
18527;BME280;9393;42.158;24.748;2022-08-11T00:55:47;99486.09;;;25.43;58.42
18527;BME280;9393;42.158;24.748;2022-08-11T00:59:33;99491.19;;;24.64;60.93
18527;BME280;9393;42.158;24.748;2022-08-11T01:03:20;99493.34;;;25.02;59.80
18527;BME280;9393;42.158;24.748;2022-08-11T01:06:43;99483.88;;;25.23;59.51
18527;BME280;9393;42.158;24.748;2022-08-11T01:10:10;99485.06;;;25.44;59.12
18527;BME280;9393;42.158;24.748;2022-08-11T01:21:06;99466.59;;;24.62;61.42
18527;BME280;9393;42.158;24.748;2022-08-11T01:32:27;99466.53;;;25.09;59.05
18527;BME280;9393;42.158;24.748;2022-08-11T01:44:00;99471.00;;;25.20;57.54
18527;BME280;9393;42.158;24.748;2022-08-11T01:47:30;99471.09;;;25.25;57.46
18527;BME280;9393;42.158;24.748;2022-08-11T01:51:05;99473.13;;;25.06;57.65
18527;BME280;9393;42.158;24.748;2022-08-11T01:54:25;99468.97;;;25.27;56.91
18527;BME280;9393;42.158;24.748;2022-08-11T01:57:35;99470.97;;;25.48;56.47
18527;BME280;9393;42.158;24.748;2022-08-11T02:00:49;99465.84;;;25.58;56.00
18527;BME280;9393;42.158;24.748;2022-08-11T02:04:00;99471.78;;;25.77;55.14
18527;BME280;9393;42.158;24.748;2022-08-11T02:07:16;99462.63;;;25.56;55.78
18527;BME280;9393;42.158;24.748;2022-08-11T02:10:25;99460.44;;;25.87;54.63
18527;BME280;9393;42.158;24.748;2022-08-11T02:13:56;99463.94;;;25.87;54.44
18527;BME280;9393;42.158;24.748;2022-08-11T02:17:11;99467.97;;;25.73;55.07
18527;BME280;9393;42.158;24.748;2022-08-11T02:20:19;99461.41;;;25.64;55.07
18527;BME280;9393;42.158;24.748;2022-08-11T02:23:50;99464.09;;;25.81;54.40
18527;BME280;9393;42.158;24.748;2022-08-11T02:27:17;99460.63;;;25.97;53.96
18527;BME280;9393;42.158;24.748;2022-08-11T02:30:24;99453.56;;;25.91;54.14
18527;BME280;9393;42.158;24.748;2022-08-11T02:33:29;99453.25;;;25.87;54.12
18527;BME280;9393;42.158;24.748;2022-08-11T02:36:43;99451.94;;;25.73;53.95
18527;BME280;9393;42.158;24.748;2022-08-11T02:40:05;99459.06;;;25.51;54.30
18527;BME280;9393;42.158;24.748;2022-08-11T02:43:23;99452.28;;;25.77;53.83
18527;BME280;9393;42.158;24.748;2022-08-11T02:46:36;99459.25;;;25.94;53.32
18527;BME280;9393;42.158;24.748;2022-08-11T02:49:49;99458.59;;;26.04;52.89
18527;BME280;9393;42.158;24.748;2022-08-11T02:53:12;99462.06;;;26.04;52.99
18527;BME280;9393;42.158;24.748;2022-08-11T02:56:24;99461.91;;;26.11;52.49
18527;BME280;9393;42.158;24.748;2022-08-11T02:59:42;99458.91;;;26.07;52.57
18527;BME280;9393;42.158;24.748;2022-08-11T03:03:12;99463.44;;;26.07;52.66
18527;BME280;9393;42.158;24.748;2022-08-11T03:06:30;99465.47;;;26.17;52.26
18527;BME280;9393;42.158;24.748;2022-08-11T03:09:45;99466.88;;;26.02;52.99
18527;BME280;9393;42.158;24.748;2022-08-11T03:13:03;99463.94;;;26.04;52.69
18527;BME280;9393;42.158;24.748;2022-08-11T03:16:33;99463.13;;;25.87;53.60
18527;BME280;9393;42.158;24.748;2022-08-11T03:19:59;99467.97;;;25.56;55.32
18527;BME280;9393;42.158;24.748;2022-08-11T03:23:10;99468.47;;;25.70;55.01
18527;BME280;9393;42.158;24.748;2022-08-11T03:26:27;99468.84;;;25.62;54.88
18527;BME280;9393;42.158;24.748;2022-08-11T03:29:39;99456.81;;;25.76;53.99
18527;BME280;9393;42.158;24.748;2022-08-11T03:33:03;99462.13;;;25.59;54.26
18527;BME280;9393;42.158;24.748;2022-08-11T03:36:43;99464.31;;;25.62;54.22
18527;BME280;9393;42.158;24.748;2022-08-11T03:44:02;99464.03;;;25.92;53.04
18527;BME280;9393;42.158;24.748;2022-08-11T03:51:05;99465.16;;;25.96;52.91
18527;BME280;9393;42.158;24.748;2022-08-11T03:54:19;99466.13;;;25.90;52.96
18527;BME280;9393;42.158;24.748;2022-08-11T04:01:37;99471.88;;;26.16;52.08
18527;BME280;9393;42.158;24.748;2022-08-11T04:12:31;99482.56;;;26.87;50.45
18527;BME280;9393;42.158;24.748;2022-08-11T04:19:46;99478.03;;;26.33;51.31
18527;BME280;9393;42.158;24.748;2022-08-11T04:23:26;99484.16;;;26.50;51.15
18527;BME280;9393;42.158;24.748;2022-08-11T04:30:55;99483.25;;;26.23;52.01
18527;BME280;9393;42.158;24.748;2022-08-11T04:34:11;99487.91;;;26.49;51.42
18527;BME280;9393;42.158;24.748;2022-08-11T04:37:48;99486.44;;;26.41;51.70
18527;BME280;9393;42.158;24.748;2022-08-11T04:41:28;99479.25;;;25.92;52.72
18527;BME280;9393;42.158;24.748;2022-08-11T04:44:58;99477.38;;;26.09;52.53
18527;BME280;9393;42.158;24.748;2022-08-11T04:48:22;99483.78;;;26.08;52.83
18527;BME280;9393;42.158;24.748;2022-08-11T04:52:05;99483.47;;;25.88;53.72
18527;BME280;9393;42.158;24.748;2022-08-11T04:59:51;99479.31;;;26.13;53.32
18527;BME280;9393;42.158;24.748;2022-08-11T05:03:39;99473.25;;;26.73;52.10
18527;BME280;9393;42.158;24.748;2022-08-11T05:10:42;99470.34;;;26.75;52.35
18527;BME280;9393;42.158;24.748;2022-08-11T05:13:52;99487.31;;;27.29;51.19
18527;BME280;9393;42.158;24.748;2022-08-11T05:17:36;99490.44;;;26.77;53.61
18527;BME280;9393;42.158;24.748;2022-08-11T05:21:05;99478.56;;;26.51;54.24
18527;BME280;9393;42.158;24.748;2022-08-11T05:24:48;99480.91;;;26.48;53.65
18527;BME280;9393;42.158;24.748;2022-08-11T05:28:18;99491.88;;;26.46;54.07
18527;BME280;9393;42.158;24.748;2022-08-11T05:31:45;99483.38;;;27.09;52.35
18527;BME280;9393;42.158;24.748;2022-08-11T05:35:10;99488.88;;;27.46;51.62
18527;BME280;9393;42.158;24.748;2022-08-11T05:38:35;99485.38;;;27.24;51.53
18527;BME280;9393;42.158;24.748;2022-08-11T05:41:56;99480.13;;;26.86;52.19
18527;BME280;9393;42.158;24.748;2022-08-11T05:45:33;99489.78;;;26.87;52.05
18527;BME280;9393;42.158;24.748;2022-08-11T05:49:08;99485.56;;;26.74;52.23
18527;BME280;9393;42.158;24.748;2022-08-11T05:52:35;99488.75;;;26.71;52.33
18527;BME280;9393;42.158;24.748;2022-08-11T05:56:03;99492.06;;;26.23;53.28
18527;BME280;9393;42.158;24.748;2022-08-11T05:59:22;99497.59;;;26.55;53.22
18527;BME280;9393;42.158;24.748;2022-08-11T06:02:26;99489.03;;;27.13;51.11
18527;BME280;9393;42.158;24.748;2022-08-11T06:05:33;99494.41;;;27.40;50.66
18527;BME280;9393;42.158;24.748;2022-08-11T06:08:46;99493.97;;;27.75;50.41
18527;BME280;9393;42.158;24.748;2022-08-11T06:11:51;99485.25;;;28.16;49.03
18527;BME280;9393;42.158;24.748;2022-08-11T06:14:56;99494.34;;;28.57;47.50
18527;BME280;9393;42.158;24.748;2022-08-11T06:18:01;99490.16;;;28.71;47.64
18527;BME280;9393;42.158;24.748;2022-08-11T06:21:08;99498.66;;;29.15;46.04
18527;BME280;9393;42.158;24.748;2022-08-11T06:24:15;99494.44;;;29.34;46.21
18527;BME280;9393;42.158;24.748;2022-08-11T06:27:19;99489.78;;;29.09;46.50
18527;BME280;9393;42.158;24.748;2022-08-11T06:30:33;99489.78;;;29.15;46.38
18527;BME280;9393;42.158;24.748;2022-08-11T06:33:52;99488.28;;;29.49;45.59
18527;BME280;9393;42.158;24.748;2022-08-11T06:37:02;99482.91;;;29.39;46.24
18527;BME280;9393;42.158;24.748;2022-08-11T06:40:29;99485.34;;;29.50;46.18
18527;BME280;9393;42.158;24.748;2022-08-11T06:43:45;99481.03;;;29.39;45.94
18527;BME280;9393;42.158;24.748;2022-08-11T06:47:05;99479.16;;;29.65;45.69
18527;BME280;9393;42.158;24.748;2022-08-11T06:50:10;99477.59;;;30.20;43.98
18527;BME280;9393;42.158;24.748;2022-08-11T06:53:38;99482.44;;;29.97;44.03
18527;BME280;9393;42.158;24.748;2022-08-11T06:57:11;99488.34;;;30.04;44.14
18527;BME280;9393;42.158;24.748;2022-08-11T07:00:33;99490.19;;;30.60;42.60
18527;BME280;9393;42.158;24.748;2022-08-11T07:03:42;99493.44;;;30.31;43.07
18527;BME280;9393;42.158;24.748;2022-08-11T07:07:00;99484.69;;;30.90;42.30
18527;BME280;9393;42.158;24.748;2022-08-11T07:10:42;99488.06;;;31.26;41.94
18527;BME280;9393;42.158;24.748;2022-08-11T07:14:09;99488.25;;;30.75;41.60
18527;BME280;9393;42.158;24.748;2022-08-11T07:22:22;99490.50;;;31.66;40.43
18527;BME280;9393;42.158;24.748;2022-08-11T07:25:46;99495.97;;;31.95;40.26
18527;BME280;9393;42.158;24.748;2022-08-11T07:29:14;99490.50;;;31.71;40.89
18527;BME280;9393;42.158;24.748;2022-08-11T07:32:24;99484.28;;;31.71;40.28
18527;BME280;9393;42.158;24.748;2022-08-11T07:35:32;99499.59;;;32.14;40.44
18527;BME280;9393;42.158;24.748;2022-08-11T07:38:40;99492.97;;;32.59;39.64
18527;BME280;9393;42.158;24.748;2022-08-11T07:41:50;99493.81;;;32.54;39.16
18527;BME280;9393;42.158;24.748;2022-08-11T07:44:56;99493.47;;;31.70;40.41
18527;BME280;9393;42.158;24.748;2022-08-11T07:48:19;99497.53;;;32.06;40.10
18527;BME280;9393;42.158;24.748;2022-08-11T07:51:42;99494.06;;;31.95;40.09
18527;BME280;9393;42.158;24.748;2022-08-11T07:55:05;99490.31;;;32.54;39.42
18527;BME280;9393;42.158;24.748;2022-08-11T07:58:12;99487.16;;;32.94;38.98
18527;BME280;9393;42.158;24.748;2022-08-11T08:01:47;99478.56;;;32.40;39.26
18527;BME280;9393;42.158;24.748;2022-08-11T08:05:09;99477.63;;;32.54;38.70
18527;BME280;9393;42.158;24.748;2022-08-11T08:08:30;99478.59;;;32.87;38.43
18527;BME280;9393;42.158;24.748;2022-08-11T08:11:54;99484.41;;;32.99;38.65
18527;BME280;9393;42.158;24.748;2022-08-11T08:15:16;99478.41;;;33.02;38.36
18527;BME280;9393;42.158;24.748;2022-08-11T08:18:39;99470.78;;;32.62;38.77
18527;BME280;9393;42.158;24.748;2022-08-11T08:21:44;99474.28;;;32.63;39.11
18527;BME280;9393;42.158;24.748;2022-08-11T08:24:48;99469.69;;;32.63;38.44
18527;BME280;9393;42.158;24.748;2022-08-11T08:27:53;99465.72;;;33.59;36.93
18527;BME280;9393;42.158;24.748;2022-08-11T08:30:58;99471.38;;;33.95;36.69
18527;BME280;9393;42.158;24.748;2022-08-11T08:34:03;99463.66;;;33.14;37.46
18527;BME280;9393;42.158;24.748;2022-08-11T08:37:07;99462.88;;;34.01;36.18
18527;BME280;9393;42.158;24.748;2022-08-11T08:40:30;99457.56;;;33.27;36.09
18527;BME280;9393;42.158;24.748;2022-08-11T08:43:35;99471.88;;;33.46;36.08
18527;BME280;9393;42.158;24.748;2022-08-11T08:46:53;99467.69;;;34.05;35.30
18527;BME280;9393;42.158;24.748;2022-08-11T08:50:01;99467.63;;;34.10;35.21
18527;BME280;9393;42.158;24.748;2022-08-11T08:53:07;99456.66;;;34.61;34.65
18527;BME280;9393;42.158;24.748;2022-08-11T08:56:11;99460.19;;;34.75;34.96
18527;BME280;9393;42.158;24.748;2022-08-11T08:59:21;99449.53;;;34.92;33.95
18527;BME280;9393;42.158;24.748;2022-08-11T09:02:26;99454.72;;;35.16;33.91
18527;BME280;9393;42.158;24.748;2022-08-11T09:05:53;99445.38;;;35.08;34.20
18527;BME280;9393;42.158;24.748;2022-08-11T09:09:00;99440.41;;;34.47;34.85
18527;BME280;9393;42.158;24.748;2022-08-11T09:12:05;99436.69;;;34.57;34.61
18527;BME280;9393;42.158;24.748;2022-08-11T09:15:11;99433.88;;;34.34;34.55
18527;BME280;9393;42.158;24.748;2022-08-11T09:18:20;99438.56;;;34.97;33.41
18527;BME280;9393;42.158;24.748;2022-08-11T09:21:26;99429.06;;;34.99;34.13
18527;BME280;9393;42.158;24.748;2022-08-11T09:24:50;99424.34;;;35.27;33.10
18527;BME280;9393;42.158;24.748;2022-08-11T09:28:13;99422.75;;;34.22;33.90
18527;BME280;9393;42.158;24.748;2022-08-11T09:31:17;99424.00;;;35.20;32.20
18527;BME280;9393;42.158;24.748;2022-08-11T09:34:24;99411.41;;;34.88;32.72
18527;BME280;9393;42.158;24.748;2022-08-11T09:37:30;99418.38;;;35.03;32.19
18527;BME280;9393;42.158;24.748;2022-08-11T09:40:57;99402.91;;;35.04;32.44
18527;BME280;9393;42.158;24.748;2022-08-11T09:44:02;99407.81;;;34.66;32.62
18527;BME280;9393;42.158;24.748;2022-08-11T09:47:25;99406.00;;;35.24;31.48
18527;BME280;9393;42.158;24.748;2022-08-11T09:50:30;99397.25;;;35.49;31.43
18527;BME280;9393;42.158;24.748;2022-08-11T09:53:37;99398.19;;;35.09;32.37
18527;BME280;9393;42.158;24.748;2022-08-11T09:56:42;99400.53;;;34.07;33.74
18527;BME280;9393;42.158;24.748;2022-08-11T10:00:08;99389.97;;;34.65;32.81
18527;BME280;9393;42.158;24.748;2022-08-11T10:03:16;99387.44;;;34.82;32.34
18527;BME280;9393;42.158;24.748;2022-08-11T10:06:20;99382.84;;;35.18;32.21
18527;BME280;9393;42.158;24.748;2022-08-11T10:09:48;99386.28;;;34.96;32.84
18527;BME280;9393;42.158;24.748;2022-08-11T10:12:57;99388.75;;;34.57;32.78
18527;BME280;9393;42.158;24.748;2022-08-11T10:16:06;99385.50;;;34.82;32.81
18527;BME280;9393;42.158;24.748;2022-08-11T10:19:18;99388.25;;;35.18;32.13
18527;BME280;9393;42.158;24.748;2022-08-11T10:22:23;99385.91;;;34.89;31.95
18527;BME280;9393;42.158;24.748;2022-08-11T10:25:46;99377.75;;;35.17;31.66
18527;BME280;9393;42.158;24.748;2022-08-11T10:29:09;99380.13;;;35.05;31.88
18527;BME280;9393;42.158;24.748;2022-08-11T10:32:36;99379.31;;;35.18;31.24
18527;BME280;9393;42.158;24.748;2022-08-11T10:36:00;99368.97;;;35.42;30.73
18527;BME280;9393;42.158;24.748;2022-08-11T10:39:19;99372.50;;;35.95;30.72
18527;BME280;9393;42.158;24.748;2022-08-11T10:42:24;99368.34;;;35.45;30.95
18527;BME280;9393;42.158;24.748;2022-08-11T10:45:58;99362.66;;;35.77;31.19
18527;BME280;9393;42.158;24.748;2022-08-11T10:49:31;99359.59;;;35.70;30.52
18527;BME280;9393;42.158;24.748;2022-08-11T10:52:35;99351.00;;;35.77;30.23
18527;BME280;9393;42.158;24.748;2022-08-11T10:55:57;99352.72;;;36.04;29.92
18527;BME280;9393;42.158;24.748;2022-08-11T10:59:20;99346.28;;;35.38;29.61
18527;BME280;9393;42.158;24.748;2022-08-11T11:02:25;99344.41;;;36.00;29.69
18527;BME280;9393;42.158;24.748;2022-08-11T11:05:30;99348.47;;;36.11;29.12
18527;BME280;9393;42.158;24.748;2022-08-11T11:08:40;99342.19;;;35.05;30.19
18527;BME280;9393;42.158;24.748;2022-08-11T11:12:09;99336.78;;;35.49;29.84
18527;BME280;9393;42.158;24.748;2022-08-11T11:15:34;99333.69;;;34.97;29.25
18527;BME280;9393;42.158;24.748;2022-08-11T11:19:00;99332.56;;;35.12;29.69
18527;BME280;9393;42.158;24.748;2022-08-11T11:22:06;99327.84;;;35.71;29.03
18527;BME280;9393;42.158;24.748;2022-08-11T11:25:35;99324.53;;;35.82;29.26
18527;BME280;9393;42.158;24.748;2022-08-11T11:28:57;99326.69;;;35.41;28.36
18527;BME280;9393;42.158;24.748;2022-08-11T11:32:19;99316.75;;;35.89;27.75
18527;BME280;9393;42.158;24.748;2022-08-11T11:35:33;99323.84;;;35.68;28.23
18527;BME280;9393;42.158;24.748;2022-08-11T11:38:39;99313.66;;;35.74;28.94
18527;BME280;9393;42.158;24.748;2022-08-11T11:41:43;99311.56;;;35.71;28.55
18527;BME280;9393;42.158;24.748;2022-08-11T11:44:47;99310.72;;;35.92;27.07
18527;BME280;9393;42.158;24.748;2022-08-11T11:47:58;99299.81;;;36.32;28.02
18527;BME280;9393;42.158;24.748;2022-08-11T11:51:02;99308.22;;;36.78;27.52
18527;BME280;9393;42.158;24.748;2022-08-11T11:54:07;99296.38;;;36.91;26.87
18527;BME280;9393;42.158;24.748;2022-08-11T11:57:13;99294.78;;;36.65;27.92
18527;BME280;9393;42.158;24.748;2022-08-11T12:00:32;99292.13;;;36.17;28.11
18527;BME280;9393;42.158;24.748;2022-08-11T12:03:56;99289.25;;;36.22;28.21
18527;BME280;9393;42.158;24.748;2022-08-11T12:07:00;99278.88;;;36.15;28.21
18527;BME280;9393;42.158;24.748;2022-08-11T12:10:18;99278.38;;;35.74;28.45
18527;BME280;9393;42.158;24.748;2022-08-11T12:13:22;99271.69;;;35.71;28.46
18527;BME280;9393;42.158;24.748;2022-08-11T12:16:43;99282.44;;;36.50;27.51
18527;BME280;9393;42.158;24.748;2022-08-11T12:19:49;99272.03;;;35.78;28.30
18527;BME280;9393;42.158;24.748;2022-08-11T12:22:58;99261.66;;;35.49;28.56
18527;BME280;9393;42.158;24.748;2022-08-11T12:26:19;99267.88;;;35.19;28.73
18527;BME280;9393;42.158;24.748;2022-08-11T12:30:15;99264.53;;;35.22;28.91
18527;BME280;9393;42.158;24.748;2022-08-11T12:33:19;99261.78;;;35.44;28.48
18527;BME280;9393;42.158;24.748;2022-08-11T12:36:26;99261.66;;;35.49;29.46
18527;BME280;9393;42.158;24.748;2022-08-11T12:39:33;99262.56;;;34.70;29.77
18527;BME280;9393;42.158;24.748;2022-08-11T12:43:17;99259.66;;;35.11;29.33
18527;BME280;9393;42.158;24.748;2022-08-11T12:46:42;99257.56;;;34.63;29.65
18527;BME280;9393;42.158;24.748;2022-08-11T12:49:48;99268.19;;;35.18;28.65
18527;BME280;9393;42.158;24.748;2022-08-11T12:53:27;99259.59;;;35.02;28.83
18527;BME280;9393;42.158;24.748;2022-08-11T12:56:37;99254.41;;;35.36;28.10
18527;BME280;9393;42.158;24.748;2022-08-11T12:59:59;99262.47;;;35.59;27.77
18527;BME280;9393;42.158;24.748;2022-08-11T13:03:21;99255.13;;;35.51;27.58
18527;BME280;9393;42.158;24.748;2022-08-11T13:06:42;99249.88;;;35.54;27.92
18527;BME280;9393;42.158;24.748;2022-08-11T13:09:49;99249.09;;;35.23;28.70
18527;BME280;9393;42.158;24.748;2022-08-11T13:12:52;99251.38;;;35.38;28.37
18527;BME280;9393;42.158;24.748;2022-08-11T13:15:55;99250.81;;;35.49;28.26
18527;BME280;9393;42.158;24.748;2022-08-11T13:19:00;99246.97;;;34.97;28.42
18527;BME280;9393;42.158;24.748;2022-08-11T13:22:03;99247.31;;;34.60;29.34
18527;BME280;9393;42.158;24.748;2022-08-11T13:25:09;99244.50;;;34.29;30.32
18527;BME280;9393;42.158;24.748;2022-08-11T13:28:17;99239.63;;;34.54;29.76
18527;BME280;9393;42.158;24.748;2022-08-11T13:31:22;99230.75;;;35.28;29.07
18527;BME280;9393;42.158;24.748;2022-08-11T13:34:27;99232.75;;;35.45;28.99
18527;BME280;9393;42.158;24.748;2022-08-11T13:37:32;99231.56;;;34.62;30.35
18527;BME280;9393;42.158;24.748;2022-08-11T13:40:58;99239.91;;;34.52;30.10
18527;BME280;9393;42.158;24.748;2022-08-11T13:44:02;99230.91;;;35.01;30.08
18527;BME280;9393;42.158;24.748;2022-08-11T13:47:07;99229.88;;;34.88;30.06
18527;BME280;9393;42.158;24.748;2022-08-11T13:50:14;99227.38;;;35.00;29.66
18527;BME280;9393;42.158;24.748;2022-08-11T13:53:20;99227.91;;;35.03;28.84
18527;BME280;9393;42.158;24.748;2022-08-11T13:56:26;99219.00;;;35.11;28.87
18527;BME280;9393;42.158;24.748;2022-08-11T13:59:30;99221.72;;;35.33;28.55
18527;BME280;9393;42.158;24.748;2022-08-11T14:02:47;99219.75;;;35.25;28.54
18527;BME280;9393;42.158;24.748;2022-08-11T14:05:53;99221.34;;;35.26;29.63
18527;BME280;9393;42.158;24.748;2022-08-11T14:08:59;99223.75;;;34.83;29.93
18527;BME280;9393;42.158;24.748;2022-08-11T14:12:08;99219.00;;;35.11;29.79
18527;BME280;9393;42.158;24.748;2022-08-11T14:15:33;99220.31;;;34.33;30.57
18527;BME280;9393;42.158;24.748;2022-08-11T14:18:47;99218.56;;;34.15;30.83
18527;BME280;9393;42.158;24.748;2022-08-11T14:21:54;99217.13;;;34.17;30.69
18527;BME280;9393;42.158;24.748;2022-08-11T14:25:10;99211.56;;;33.73;31.06
18527;BME280;9393;42.158;24.748;2022-08-11T14:28:17;99215.00;;;33.65;31.50
18527;BME280;9393;42.158;24.748;2022-08-11T14:31:37;99223.75;;;33.57;31.33
18527;BME280;9393;42.158;24.748;2022-08-11T14:34:42;99225.31;;;33.17;31.69
18527;BME280;9393;42.158;24.748;2022-08-11T14:37:46;99221.13;;;32.92;32.13
18527;BME280;9393;42.158;24.748;2022-08-11T14:40:51;99230.09;;;32.87;32.49
18527;BME280;9393;42.158;24.748;2022-08-11T14:44:14;99222.00;;;32.87;32.08
18527;BME280;9393;42.158;24.748;2022-08-11T14:47:37;99224.94;;;32.72;32.13
18527;BME280;9393;42.158;24.748;2022-08-11T14:50:41;99218.75;;;32.72;31.77
18527;BME280;9393;42.158;24.748;2022-08-11T14:53:45;99222.69;;;32.93;31.82
18527;BME280;9393;42.158;24.748;2022-08-11T14:57:00;99223.00;;;33.24;31.28
18527;BME280;9393;42.158;24.748;2022-08-11T15:00:07;99218.00;;;33.17;30.67
18527;BME280;9393;42.158;24.748;2022-08-11T15:03:14;99223.09;;;33.19;30.36
18527;BME280;9393;42.158;24.748;2022-08-11T15:06:18;99230.97;;;32.83;30.65
18527;BME280;9393;42.158;24.748;2022-08-11T15:09:22;99220.84;;;32.56;31.13
18527;BME280;9393;42.158;24.748;2022-08-11T15:12:25;99228.16;;;32.37;31.35
18527;BME280;9393;42.158;24.748;2022-08-11T15:15:35;99224.91;;;32.35;31.45
18527;BME280;9393;42.158;24.748;2022-08-11T15:18:56;99221.50;;;32.29;31.89
18527;BME280;9393;42.158;24.748;2022-08-11T15:22:00;99228.22;;;32.32;32.29
18527;BME280;9393;42.158;24.748;2022-08-11T15:25:27;99216.72;;;32.02;32.37
18527;BME280;9393;42.158;24.748;2022-08-11T15:28:35;99219.09;;;32.04;32.60
18527;BME280;9393;42.158;24.748;2022-08-11T15:31:58;99216.41;;;31.85;32.71
18527;BME280;9393;42.158;24.748;2022-08-11T15:35:19;99215.00;;;31.88;32.93
18527;BME280;9393;42.158;24.748;2022-08-11T15:38:43;99214.25;;;31.59;33.29
18527;BME280;9393;42.158;24.748;2022-08-11T15:41:56;99215.72;;;31.51;33.67
18527;BME280;9393;42.158;24.748;2022-08-11T15:45:21;99212.00;;;31.42;33.56
18527;BME280;9393;42.158;24.748;2022-08-11T15:48:46;99212.91;;;31.32;34.00
18527;BME280;9393;42.158;24.748;2022-08-11T15:51:56;99218.34;;;31.27;33.63
18527;BME280;9393;42.158;24.748;2022-08-11T15:55:05;99221.94;;;31.18;34.01
18527;BME280;9393;42.158;24.748;2022-08-11T15:58:11;99244.03;;;31.20;34.55
18527;BME280;9393;42.158;24.748;2022-08-11T16:01:32;99246.16;;;30.40;37.59
18527;BME280;9393;42.158;24.748;2022-08-11T16:04:58;99253.09;;;29.97;38.89
18527;BME280;9393;42.158;24.748;2022-08-11T16:08:03;99248.50;;;30.02;38.92
18527;BME280;9393;42.158;24.748;2022-08-11T16:11:10;99265.47;;;29.93;39.73
18527;BME280;9393;42.158;24.748;2022-08-11T16:14:16;99270.63;;;29.74;39.61
18527;BME280;9393;42.158;24.748;2022-08-11T16:17:40;99277.13;;;29.38;40.71
18527;BME280;9393;42.158;24.748;2022-08-11T16:20:49;99298.06;;;29.61;40.66
18527;BME280;9393;42.158;24.748;2022-08-11T16:23:55;99297.56;;;29.44;40.44
18527;BME280;9393;42.158;24.748;2022-08-11T16:27:02;99330.03;;;29.68;40.33
18527;BME280;9393;42.158;24.748;2022-08-11T16:30:14;99355.53;;;29.20;43.38
18527;BME280;9393;42.158;24.748;2022-08-11T16:33:19;99348.25;;;28.95;46.63
18527;BME280;9393;42.158;24.748;2022-08-11T16:36:46;99354.44;;;29.10;46.54
18527;BME280;9393;42.158;24.748;2022-08-11T16:40:08;99369.66;;;28.70;48.64
18527;BME280;9393;42.158;24.748;2022-08-11T16:43:16;99370.56;;;28.33;51.41
18527;BME280;9393;42.158;24.748;2022-08-11T16:46:38;99392.44;;;27.78;54.73
18527;BME280;9393;42.158;24.748;2022-08-11T16:49:59;99398.97;;;27.29;56.95
18527;BME280;9393;42.158;24.748;2022-08-11T16:53:06;99401.97;;;27.10;59.12
18527;BME280;9393;42.158;24.748;2022-08-11T16:56:11;99402.50;;;26.86;61.94
18527;BME280;9393;42.158;24.748;2022-08-11T16:59:21;99416.41;;;26.61;64.92
18527;BME280;9393;42.158;24.748;2022-08-11T17:02:29;99425.06;;;25.96;68.30
18527;BME280;9393;42.158;24.748;2022-08-11T17:05:52;99421.09;;;25.21;72.63
18527;BME280;9393;42.158;24.748;2022-08-11T17:09:19;99426.47;;;25.82;70.37
18527;BME280;9393;42.158;24.748;2022-08-11T17:12:43;99436.41;;;25.70;70.95
18527;BME280;9393;42.158;24.748;2022-08-11T17:16:11;99449.94;;;25.97;70.50
18527;BME280;9393;42.158;24.748;2022-08-11T17:19:19;99450.66;;;26.09;70.64
18527;BME280;9393;42.158;24.748;2022-08-11T17:22:43;99450.66;;;26.09;70.53
18527;BME280;9393;42.158;24.748;2022-08-11T17:26:06;99448.56;;;25.94;70.97
18527;BME280;9393;42.158;24.748;2022-08-11T17:29:10;99457.28;;;25.90;71.27
18527;BME280;9393;42.158;24.748;2022-08-11T17:32:17;99465.16;;;25.80;73.20
18527;BME280;9393;42.158;24.748;2022-08-11T17:39:20;99459.47;;;25.76;71.54
18527;BME280;9393;42.158;24.748;2022-08-11T17:42:28;99453.09;;;25.77;70.43
18527;BME280;9393;42.158;24.748;2022-08-11T17:45:50;99435.44;;;26.09;69.26
18527;BME280;9393;42.158;24.748;2022-08-11T17:49:11;99434.13;;;26.29;67.82
18527;BME280;9393;42.158;24.748;2022-08-11T17:52:16;99436.00;;;26.28;67.67
18527;BME280;9393;42.158;24.748;2022-08-11T17:55:37;99426.34;;;26.27;66.60
18527;BME280;9393;42.158;24.748;2022-08-11T17:59:00;99430.34;;;26.25;65.60
18527;BME280;9393;42.158;24.748;2022-08-11T18:02:25;99431.88;;;26.21;66.23
18527;BME280;9393;42.158;24.748;2022-08-11T18:05:48;99427.34;;;26.21;66.89
18527;BME280;9393;42.158;24.748;2022-08-11T18:08:52;99440.69;;;26.59;65.43
18527;BME280;9393;42.158;24.748;2022-08-11T18:12:14;99446.75;;;26.72;66.63
18527;BME280;9393;42.158;24.748;2022-08-11T18:15:38;99451.66;;;26.80;67.87
18527;BME280;9393;42.158;24.748;2022-08-11T18:19:00;99452.06;;;26.88;68.39
18527;BME280;9393;42.158;24.748;2022-08-11T18:22:25;99446.31;;;26.80;67.39
18527;BME280;9393;42.158;24.748;2022-08-11T18:25:48;99446.81;;;26.77;68.15